Orlando, FL (32830)

6:23 AM EST on February 13, 2016 (GMT -0500)
APRSWXNET | | Change Station
CLOSE
Current Station
Personal Weather Station
Location: Orlando, FL
Elevation: 117 ft
Nearby Weather Stations

Elev 117 ft 28.40 °N, 81.50 °W | Updated 46 minutes ago

Partly Cloudy
Partly Cloudy
58 °F
Feels Like 58 °F
N
1
Wind Variable Wind from WNW
Gusts 5.0 mph

Today
High -- | Low -- °F
--% Chance of Precip.
Yesterday
High -- | Low -- °F
Precip. -- in
Pressure 30.18 in
Visibility 10.0 miles
Clouds Scattered Clouds 1800 ft
Dew Point 57 °F
Humidity 96%
Rainfall in
Snow Depth Not available.
7:06 AM 6:15 PM
Waxing Crescent, 29% visible
METAR KMCO 131053Z 28008KT 10SM SCT018 15/13 A3018 RMK AO2 SLP218 SCT V FEW T01500133
Pressure 30.18 in
Visibility 10.0 miles
Clouds Scattered Clouds 1800 ft
Dew Point 57 °F
Humidity 96%
Rainfall in
Snow Depth Not available.
7:06 AM 6:15 PM
Waxing Crescent, 29% visible
METAR KMCO 131053Z 28008KT 10SM SCT018 15/13 A3018 RMK AO2 SLP218 SCT V FEW T01500133

10-Day Weather Forecast

Almanac

Astronomy

Feb. 13, 2016 Rise Set
Actual Time
Civil Twilight
Nautical Twilight
Astronomical Twilight
Moon
Length of Visible Light
Length of Day
Tomorrow will be .
, % of the Moon is Illuminated

Today's Extremes

State Highs State Lows

Community

WunderPhotos

Upload Photos

1,892,541 photos uploaded!

WunderBlog® & News

Nearby

Air Quality

  Air Quality AQ Index Pollutant
Not available.

Snow Depth

Station Depth Elevation

Earthquake Activity

City Distance Mag. Time & Date
Minimum magnitude displayed is 2.5.

Coastal Water Temperatures

Place Temperature

Stations

Nearby Weather Stations

Station Location Temp. Windchill Dew Point Humidity Wind Precip. Elev Updated Type
                   

Watches & Warnings

There are currently no watches in effect.